Time;durP1;ratioP1;P1;durP2;ratioP2;P2;SDS_P1;SDS_P2;PMS_P1;PMS_P2;Temp;Humidity;BMP_temperature;BMP_pressure;BME280_temperature;BME280_humidity;BME280_pressure;Samples;Min_cycle;Max_cycle;Signal;HPM_P1;HPM_P2
2024/03/02 00:00:20;;;;;;;;;;;9.10;99.90;;;9.38;59.42;98928.09;4941726;29;19934;-82
2024/03/02 00:02:48;;;;;;;;;;;9.20;99.90;;;9.41;59.70;98916.94;4943534;29;19962;-82
2024/03/02 00:05:16;;;;;;;;;;;9.20;99.90;;;9.38;59.68;98914.78;4941941;29;20372;-82
2024/03/02 00:07:46;;;;;;;;;;;9.20;99.90;;;9.39;59.89;98922.53;4942101;29;19935;-82
2024/03/02 00:10:20;;;;;;;;;;;9.20;99.90;;;9.40;59.40;98915.34;4941719;29;19927;-82
2024/03/02 00:12:48;;;;;;;;;;;9.20;99.90;;;9.37;59.36;98916.66;4941621;29;19942;-82
2024/03/02 00:15:33;;;;;;;;;;;9.20;99.90;;;9.40;59.92;98925.97;4941384;29;19927;-82
2024/03/02 00:18:01;;;;;;;;;;;9.20;99.90;;;9.43;59.84;98913.00;4941007;29;19927;-82
2024/03/02 00:20:28;;;;;;;;;;;9.30;99.90;;;9.43;60.08;98918.34;4972279;28;19933;-82
2024/03/02 00:23:04;;;;;;;;;;;9.30;99.90;;;9.44;60.04;98911.16;4942702;29;19966;-82
2024/03/02 00:25:41;;;;;;;;;;;9.30;99.90;;;9.42;59.96;98907.91;4942853;28;19931;-82
2024/03/02 00:28:16;;;;;;;;;;;9.30;99.90;;;9.41;59.62;98900.97;4942535;29;19927;-82
2024/03/02 00:30:59;;;;;;;;;;;9.30;99.90;;;9.37;59.67;98911.31;4942741;29;19978;-82
2024/03/02 00:33:33;;;;;;;;;;;9.30;99.90;;;9.40;59.52;98894.06;4973408;28;20015;-82
2024/03/02 00:36:00;;;;;;;;;;;9.20;99.90;;;9.42;59.69;98905.25;4942302;29;19927;-82
2024/03/02 00:38:30;;;;;;;;;;;9.30;99.90;;;9.44;59.82;98900.50;4943245;29;19927;-82
2024/03/02 00:41:01;;;;;;;;;;;9.30;99.90;;;9.41;59.86;98890.34;4973952;28;20372;-82
2024/03/02 00:43:44;;;;;;;;;;;9.30;99.90;;;9.44;59.85;98892.53;4942036;29;20427;-82
2024/03/02 00:46:18;;;;;;;;;;;9.30;99.90;;;9.45;59.81;98891.47;4940860;29;20017;-82
2024/03/02 00:48:55;;;;;;;;;;;9.30;99.90;;;9.44;59.45;98887.22;4942219;29;20332;-82
2024/03/02 00:51:23;;;;;;;;;;;9.30;99.90;;;9.42;59.62;98882.13;4940022;29;19982;-82
2024/03/02 00:53:55;;;;;;;;;;;9.30;99.90;;;9.41;59.80;98885.03;4942109;29;19972;-82
2024/03/02 00:56:22;;;;;;;;;;;9.30;99.90;;;9.43;59.57;98889.06;4942479;29;19935;-82
2024/03/02 00:58:49;;;;;;;;;;;9.30;99.90;;;9.43;59.67;98880.28;4942315;29;19926;-82
2024/03/02 01:01:21;;;;;;;;;;;9.30;99.90;;;9.45;59.73;98886.16;4957676;29;19934;-82
2024/03/02 01:03:48;;;;;;;;;;;9.30;99.90;;;9.47;59.97;98884.06;4926144;29;19933;-82
2024/03/02 01:06:16;;;;;;;;;;;9.30;99.90;;;9.43;59.18;98894.38;4942564;29;20002;-82
2024/03/02 01:08:46;;;;;;;;;;;9.30;99.90;;;9.41;59.71;98887.69;4940751;29;20009;-82
2024/03/02 01:11:15;;;;;;;;;;;9.40;99.90;;;9.46;59.14;98887.75;4941194;29;19927;-82
2024/03/02 01:13:42;;;;;;;;;;;9.40;99.90;;;9.44;59.40;98888.00;4957458;29;20021;-82
2024/03/02 01:16:09;;;;;;;;;;;9.40;99.90;;;9.46;59.19;98887.75;4943384;29;19927;-82
2024/03/02 01:18:37;;;;;;;;;;;9.40;99.90;;;9.48;59.25;98888.34;4943157;29;19982;-82
2024/03/02 01:21:04;;;;;;;;;;;9.40;99.90;;;9.50;59.19;98889.69;4957446;29;19927;-82
2024/03/02 01:23:32;;;;;;;;;;;9.40;99.90;;;9.54;58.93;98890.03;4942397;29;19927;-82
2024/03/02 01:26:00;;;;;;;;;;;9.40;99.90;;;9.57;59.24;98896.72;4945948;29;19985;-82
2024/03/02 01:28:29;;;;;;;;;;;9.50;99.90;;;9.56;59.17;98890.56;4947601;29;20447;-82
2024/03/02 01:30:56;;;;;;;;;;;9.40;99.90;;;9.54;58.97;98885.50;4943276;29;19970;-82
2024/03/02 01:33:23;;;;;;;;;;;9.40;99.90;;;9.58;58.89;98893.00;4941950;29;19981;-82
2024/03/02 01:35:51;;;;;;;;;;;9.50;99.90;;;9.61;58.93;98887.19;4940189;29;20459;-82
2024/03/02 01:38:18;;;;;;;;;;;9.50;99.90;;;9.59;58.50;98891.94;4939809;29;19927;-82
2024/03/02 01:40:45;;;;;;;;;;;9.50;99.90;;;9.59;58.66;98884.78;4939424;29;20022;-82
2024/03/02 01:43:12;;;;;;;;;;;9.50;99.90;;;9.60;58.85;98883.72;4939165;29;19927;-82
2024/03/02 01:45:45;;;;;;;;;;;9.50;99.90;;;9.60;58.43;98882.91;4923362;29;19927;-82
2024/03/02 01:48:13;;;;;;;;;;;9.50;99.90;;;9.63;59.00;98880.59;4938570;29;20026;-82
2024/03/02 01:50:40;;;;;;;;;;;9.50;99.90;;;9.62;58.75;98884.28;4923376;29;19927;-82
2024/03/02 01:53:09;;;;;;;;;;;9.50;99.90;;;9.60;58.15;98875.72;4939212;29;19927;-82
2024/03/02 01:55:36;;;;;;;;;;;9.50;99.90;;;9.60;59.13;98881.06;4939364;29;20388;-82
2024/03/02 01:58:06;;;;;;;;;;;9.40;99.90;;;9.55;58.54;98873.00;4938956;29;20022;-82
2024/03/02 02:00:34;;;;;;;;;;;9.50;99.90;;;9.48;57.93;98867.06;4938762;29;19927;-82
2024/03/02 02:03:04;;;;;;;;;;;9.40;99.90;;;9.50;58.78;98870.25;4939429;29;19927;-82
2024/03/02 02:05:31;;;;;;;;;;;9.40;99.90;;;9.54;58.69;98868.72;4938890;29;20482;-82
2024/03/02 02:07:59;;;;;;;;;;;9.40;99.90;;;9.57;58.86;98870.13;4939633;29;19990;-82
2024/03/02 02:10:26;;;;;;;;;;;9.40;99.90;;;9.57;58.86;98859.47;4921635;29;19927;-82
2024/03/02 02:12:54;;;;;;;;;;;9.40;99.90;;;9.56;59.21;98866.63;4923035;29;20365;-82
2024/03/02 02:15:26;;;;;;;;;;;9.40;99.90;;;9.54;58.80;98853.56;4921437;29;19927;-82
2024/03/02 02:17:53;;;;;;;;;;;9.30;99.90;;;9.53;58.47;98851.16;4921000;29;19931;-82
2024/03/02 02:20:22;;;;;;;;;;;9.30;99.90;;;9.54;58.93;98864.22;4922829;29;20401;-82
2024/03/02 02:23:09;;;;;;;;;;;9.40;99.90;;;9.56;58.43;98863.97;4935395;29;19927;-82
2024/03/02 02:25:37;;;;;;;;;;;9.40;99.90;;;9.53;58.62;98864.47;4939277;29;20001;-82
2024/03/02 02:28:04;;;;;;;;;;;9.30;99.90;;;9.55;58.81;98865.81;4939861;29;20396;-82
2024/03/02 02:30:33;;;;;;;;;;;9.40;99.90;;;9.55;58.75;98865.00;4939447;29;19951;-82
2024/03/02 02:33:00;;;;;;;;;;;9.40;99.90;;;9.52;58.19;98866.31;4939998;29;19927;-82
2024/03/02 02:35:28;;;;;;;;;;;9.40;99.90;;;9.52;58.42;98866.31;4941247;29;19934;-82
2024/03/02 02:37:56;;;;;;;;;;;9.40;99.90;;;9.56;58.48;98866.63;4941279;29;20303;-82
2024/03/02 02:40:26;;;;;;;;;;;9.40;99.90;;;9.57;58.17;98859.47;4939296;29;20348;-82
2024/03/02 02:42:53;;;;;;;;;;;9.40;99.90;;;9.58;58.86;98864.53;4941853;29;19931;-82
2024/03/02 02:45:20;;;;;;;;;;;9.50;99.90;;;9.58;58.04;98864.53;4943822;29;19933;-82
2024/03/02 02:47:48;;;;;;;;;;;9.50;99.90;;;9.54;58.25;98853.56;4943875;29;19981;-82
2024/03/02 02:50:15;;;;;;;;;;;9.50;99.90;;;9.53;58.38;98861.81;4943273;29;19962;-82
2024/03/02 02:52:43;;;;;;;;;;;9.50;99.90;;;9.58;58.61;98853.09;4943455;29;19926;-82
2024/03/02 02:55:12;;;;;;;;;;;9.50;99.90;;;9.59;58.18;98857.34;4943092;29;19962;-82
2024/03/02 02:57:43;;;;;;;;;;;9.50;99.90;;;9.60;58.46;98856.31;4943750;29;20393;-82
2024/03/02 03:00:14;;;;;;;;;;;9.50;99.90;;;9.54;58.39;98850.91;4943503;29;19926;-82
2024/03/02 03:02:42;;;;;;;;;;;9.50;99.90;;;9.59;58.27;98855.50;4944635;29;20065;-82
2024/03/02 03:05:10;;;;;;;;;;;9.50;99.90;;;9.63;58.84;98853.16;4944283;29;19934;-82
2024/03/02 03:07:40;;;;;;;;;;;9.50;99.90;;;9.66;58.60;98844.66;4942871;29;19950;-82
2024/03/02 03:10:09;;;;;;;;;;;9.50;99.90;;;9.53;57.80;98846.63;4944269;29;19926;-82
2024/03/02 03:12:36;;;;;;;;;;;9.50;99.90;;;9.59;58.48;98838.72;4942075;29;19927;-82
2024/03/02 03:15:06;;;;;;;;;;;9.50;99.90;;;9.62;58.26;98851.56;4958566;29;20347;-82
2024/03/02 03:17:34;;;;;;;;;;;9.50;99.90;;;9.61;57.85;98853.38;4911965;29;19930;-82
2024/03/02 03:20:02;;;;;;;;;;;9.50;99.90;;;9.60;58.18;98853.63;4944319;29;19962;-82
2024/03/02 03:22:32;;;;;;;;;;;9.50;99.90;;;9.61;58.22;98848.06;4942924;29;19958;-82
2024/03/02 03:25:03;;;;;;;;;;;9.50;99.90;;;9.60;58.05;98854.44;4927058;29;19927;-82
2024/03/02 03:27:30;;;;;;;;;;;9.50;99.90;;;9.59;57.65;98852.84;4944837;29;19927;-82
2024/03/02 03:29:57;;;;;;;;;;;9.50;99.90;;;9.56;57.74;98853.31;4943301;29;19951;-82
2024/03/02 03:32:26;;;;;;;;;;;9.60;99.90;;;9.62;58.13;98852.34;4942898;29;19931;-82
2024/03/02 03:34:53;;;;;;;;;;;9.60;99.90;;;9.59;57.85;98857.34;4944294;29;19926;-82
2024/03/02 03:37:20;;;;;;;;;;;9.60;99.90;;;9.61;57.89;98863.22;4923579;29;19934;-82
2024/03/02 03:39:49;;;;;;;;;;;9.60;99.90;;;9.58;57.32;98869.88;4924892;29;20034;-82
2024/03/02 03:42:16;;;;;;;;;;;9.60;99.90;;;9.63;57.93;98866.47;4909251;29;20373;-82
2024/03/02 03:44:43;;;;;;;;;;;9.60;99.90;;;9.64;57.56;98868.88;4926445;29;20014;-82
2024/03/02 03:47:11;;;;;;;;;;;9.60;99.90;;;9.63;57.61;98872.59;4943783;29;19978;-82
2024/03/02 03:49:39;;;;;;;;;;;9.60;99.90;;;9.66;57.66;98866.78;4928915;29;20336;-82
2024/03/02 03:52:07;;;;;;;;;;;9.60;99.90;;;9.55;58.01;98867.69;4933159;29;20328;-83
2024/03/02 03:54:37;;;;;;;;;;;9.60;99.90;;;9.60;58.22;98872.28;4931820;29;19930;-82
2024/03/02 03:57:04;;;;;;;;;;;9.60;99.90;;;9.50;57.97;98868.41;4963508;28;20495;-82
2024/03/02 03:59:31;;;;;;;;;;;9.60;99.90;;;9.54;58.09;98874.06;4963679;29;19982;-82
2024/03/02 04:01:58;;;;;;;;;;;9.60;99.90;;;9.56;58.25;98871.94;4945372;29;19927;-82
2024/03/02 04:04:26;;;;;;;;;;;9.60;99.90;;;9.54;57.70;98869.53;4930675;29;19932;-82
2024/03/02 04:06:57;;;;;;;;;;;9.50;99.90;;;9.60;58.24;98877.59;4960005;29;19926;-82
2024/03/02 04:09:25;;;;;;;;;;;9.60;99.90;;;9.65;58.13;98891.78;4963556;29;19930;-82
2024/03/02 04:11:54;;;;;;;;;;;9.60;99.90;;;9.59;57.59;98882.13;4945799;29;19957;-82
2024/03/02 04:14:21;;;;;;;;;;;9.60;99.90;;;9.59;58.17;98887.44;4963014;28;19930;-82
2024/03/02 04:16:48;;;;;;;;;;;9.50;99.90;;;9.54;58.00;98882.03;4963230;29;19927;-82
2024/03/02 04:19:17;;;;;;;;;;;9.50;99.90;;;9.60;58.39;98883.72;4945645;29;19966;-82
2024/03/02 04:21:44;;;;;;;;;;;9.50;99.90;;;9.64;59.07;98879.53;4945842;29;19958;-82
2024/03/02 04:24:13;;;;;;;;;;;9.50;99.90;;;9.60;58.28;98883.72;4945121;29;19926;-82
2024/03/02 04:26:40;;;;;;;;;;;9.50;99.90;;;9.61;58.66;98890.66;4945436;29;20017;-82
2024/03/02 04:29:09;;;;;;;;;;;9.50;99.90;;;9.63;58.95;98882.44;4962357;29;19926;-82
2024/03/02 04:31:36;;;;;;;;;;;9.50;99.90;;;9.64;59.13;98892.84;4945628;29;20025;-82
2024/03/02 04:34:03;;;;;;;;;;;9.50;99.90;;;9.61;58.48;98889.84;4962500;28;20016;-82
2024/03/02 04:36:32;;;;;;;;;;;9.50;99.90;;;9.63;59.07;98883.25;4945478;29;19974;-82
2024/03/02 04:38:59;;;;;;;;;;;9.50;99.90;;;9.64;59.10;98892.03;4943851;29;19927;-82
2024/03/02 04:41:27;;;;;;;;;;;9.40;99.90;;;9.63;59.01;98893.88;4961796;28;19926;-82
2024/03/02 04:43:55;;;;;;;;;;;9.40;99.90;;;9.62;58.84;98891.47;4944835;29;19933;-82
2024/03/02 04:46:22;;;;;;;;;;;9.40;99.90;;;9.62;59.02;98894.13;4961597;28;19954;-82
2024/03/02 04:48:54;;;;;;;;;;;9.40;99.90;;;9.61;59.13;98898.63;4961950;28;20376;-82
2024/03/02 04:51:22;;;;;;;;;;;9.40;99.90;;;9.60;59.10;98894.38;4960975;29;20372;-82
2024/03/02 04:53:49;;;;;;;;;;;9.30;99.90;;;9.57;59.38;98900.19;4961976;29;19930;-82
2024/03/02 04:59:03;;;;;;;;;;;9.30;99.90;;;9.53;59.40;98915.84;4961111;29;19934;-82
2024/03/02 05:01:31;;;;;;;;;;;9.20;99.90;;;9.52;59.54;98908.91;4928693;29;19927;-82
2024/03/02 05:03:58;;;;;;;;;;;9.20;99.90;;;9.44;59.35;98916.47;4961868;29;19930;-82
2024/03/02 05:06:25;;;;;;;;;;;9.20;99.90;;;9.47;59.58;98905.34;4961205;28;20398;-82
2024/03/02 05:08:52;;;;;;;;;;;9.20;99.90;;;9.44;59.54;98897.84;4961092;28;20351;-82
2024/03/02 05:11:59;;;;;;;;;;;9.20;99.90;;;9.45;59.54;98886.97;4945522;29;19965;-82
2024/03/02 05:14:28;;;;;;;;;;;9.20;99.90;;;9.43;59.71;98898.91;4944695;29;19930;-82
2024/03/02 05:16:56;;;;;;;;;;;9.20;99.90;;;9.44;59.82;98900.50;4961035;29;19930;-82
2024/03/02 05:19:23;;;;;;;;;;;9.20;99.90;;;9.42;59.48;98906.09;4961703;29;19931;-82
2024/03/02 05:21:51;;;;;;;;;;;9.10;99.90;;;9.41;59.38;98912.44;4944069;29;19950;-82
2024/03/02 05:24:18;;;;;;;;;;;9.20;99.90;;;9.42;59.67;98922.06;4944017;29;19926;-82
2024/03/02 05:26:46;;;;;;;;;;;9.20;99.90;;;9.42;59.66;98929.19;4927394;29;19958;-82
2024/03/02 05:29:13;;;;;;;;;;;9.20;99.90;;;9.41;59.79;98908.97;4959848;28;19927;-82
2024/03/02 05:31:42;;;;;;;;;;;9.10;99.90;;;9.38;59.71;98907.63;4959412;29;20029;-82
2024/03/02 05:34:09;;;;;;;;;;;9.10;99.90;;;9.38;59.82;98909.47;4961200;28;20021;-82
2024/03/02 05:36:38;;;;;;;;;;;9.10;99.90;;;9.35;59.80;98905.44;4943557;29;19926;-82
2024/03/02 05:39:08;;;;;;;;;;;9.10;99.90;;;9.34;59.87;98895.03;4943982;29;20486;-82
2024/03/02 05:41:36;;;;;;;;;;;9.00;99.90;;;9.34;60.11;98903.81;4943228;29;20017;-82
2024/03/02 05:44:03;;;;;;;;;;;9.00;99.90;;;9.34;59.94;98909.13;4864956;29;19994;-82
2024/03/02 05:46:30;;;;;;;;;;;9.00;99.90;;;9.34;60.04;98913.66;4940178;29;19927;-82
2024/03/02 05:48:59;;;;;;;;;;;9.00;99.90;;;9.20;59.47;98929.91;4940711;29;20307;-82
2024/03/02 05:51:26;;;;;;;;;;;9.00;99.90;;;9.16;59.93;98920.00;4941609;29;20451;-82
2024/03/02 05:53:53;;;;;;;;;;;8.90;99.90;;;9.18;59.97;98933.88;4939964;29;19933;-82
2024/03/02 05:56:21;;;;;;;;;;;8.90;99.90;;;9.19;60.31;98919.53;4941322;29;20021;-82
2024/03/02 05:59:00;;;;;;;;;;;8.90;99.90;;;9.18;60.26;98924.03;4938953;29;19999;-82
2024/03/02 06:01:29;;;;;;;;;;;8.90;99.90;;;9.15;60.39;98907.75;4940060;29;19951;-82
2024/03/02 06:03:56;;;;;;;;;;;8.90;99.90;;;9.15;60.50;98915.72;4940915;29;19927;-82
2024/03/02 06:06:25;;;;;;;;;;;8.90;99.90;;;9.16;60.53;98909.34;4956124;29;19927;-82
2024/03/02 06:08:52;;;;;;;;;;;8.90;99.90;;;9.18;60.43;98912.59;4940854;29;19926;-82
2024/03/02 06:11:21;;;;;;;;;;;8.90;99.90;;;9.19;60.29;98917.66;4941361;29;19935;-82
2024/03/02 06:13:48;;;;;;;;;;;8.90;99.90;;;9.17;60.28;98932.25;4941326;29;20400;-82
2024/03/02 06:16:15;;;;;;;;;;;8.90;99.90;;;9.17;60.38;98942.88;4941917;29;20340;-82
2024/03/02 06:18:42;;;;;;;;;;;8.90;99.90;;;9.17;60.25;98938.38;4926322;29;20025;-82
2024/03/02 06:21:10;;;;;;;;;;;8.90;99.90;;;9.19;60.51;98940.81;4940150;29;19933;-81
2024/03/02 06:23:40;;;;;;;;;;;8.80;99.90;;;9.16;60.18;98947.41;4954844;29;19927;-81
2024/03/02 06:26:07;;;;;;;;;;;8.80;99.90;;;9.14;60.19;98944.19;4941256;29;19951;-82
2024/03/02 06:28:37;;;;;;;;;;;8.80;99.90;;;9.13;60.21;98953.22;4941923;29;19989;-81
2024/03/02 06:31:04;;;;;;;;;;;8.90;99.90;;;9.10;60.20;98959.00;4941564;29;19990;-81
2024/03/02 06:33:32;;;;;;;;;;;8.70;99.90;;;9.07;60.27;98962.13;4937630;29;20029;-84
2024/03/02 06:35:59;;;;;;;;;;;8.70;99.90;;;9.06;60.47;98959.72;4922517;29;19965;-82
2024/03/02 06:38:27;;;;;;;;;;;8.70;99.90;;;9.05;60.40;98956.25;4928281;29;19933;-82
2024/03/02 06:40:56;;;;;;;;;;;8.70;99.90;;;9.06;60.47;98960.50;4940783;29;19933;-83
2024/03/02 06:43:24;;;;;;;;;;;8.70;99.90;;;9.03;60.51;98979.63;4956246;29;20431;-82
2024/03/02 06:45:51;;;;;;;;;;;8.70;99.90;;;9.01;60.34;98969.22;4950537;28;20370;-84
2024/03/02 06:48:20;;;;;;;;;;;8.70;99.90;;;9.01;60.21;98971.06;4961492;28;19927;-84
2024/03/02 06:50:47;;;;;;;;;;;8.70;99.90;;;9.02;60.77;98978.78;4963646;28;19926;-83
2024/03/02 06:53:17;;;;;;;;;;;8.70;99.90;;;9.02;60.66;98978.00;4946702;29;19926;-83
2024/03/02 06:55:47;;;;;;;;;;;8.70;99.90;;;9.01;60.82;98976.38;4944719;29;19958;-83
2024/03/02 06:58:16;;;;;;;;;;;8.70;99.90;;;9.00;60.66;98986.22;4944114;29;19977;-84
2024/03/02 07:00:44;;;;;;;;;;;8.70;99.90;;;9.01;60.60;98990.47;4944235;29;20307;-84
2024/03/02 07:03:13;;;;;;;;;;;8.70;99.90;;;9.01;60.76;98989.69;4943789;29;20355;-83
2024/03/02 07:05:41;;;;;;;;;;;8.70;99.90;;;9.03;60.74;98990.25;4960650;28;20387;-84
2024/03/02 07:08:10;;;;;;;;;;;8.70;99.90;;;9.04;60.71;98989.22;4942444;29;19949;-86
2024/03/02 07:10:37;;;;;;;;;;;8.70;99.90;;;9.06;60.83;99000.41;4941894;29;19934;-88
2024/03/02 07:13:06;;;;;;;;;;;8.70;99.90;;;9.09;60.94;98988.50;4957242;28;19994;-87
2024/03/02 07:15:54;;;;;;;;;;;8.80;99.90;;;9.10;61.06;98990.91;4941978;29;20390;-82
2024/03/02 07:18:21;;;;;;;;;;;8.80;99.90;;;9.14;60.84;98994.72;4935601;29;19933;-82
2024/03/02 07:20:49;;;;;;;;;;;8.80;99.90;;;9.20;61.09;98987.63;4948057;29;19927;-82
2024/03/02 07:23:17;;;;;;;;;;;8.90;99.90;;;9.24;61.06;99000.22;4958813;29;19931;-82
2024/03/02 07:25:44;;;;;;;;;;;9.00;99.90;;;9.29;60.98;99000.31;4956843;29;19927;-82
2024/03/02 07:28:12;;;;;;;;;;;9.10;99.90;;;9.35;60.94;98997.75;4929831;29;19931;-82
2024/03/02 07:30:40;;;;;;;;;;;9.10;99.90;;;9.38;60.78;98994.59;4945207;29;19927;-82
2024/03/02 07:33:08;;;;;;;;;;;9.20;99.90;;;9.42;61.00;98995.72;4964384;28;19949;-82
2024/03/02 07:35:38;;;;;;;;;;;9.20;99.90;;;9.45;60.63;98996.06;4945669;29;20367;-82
2024/03/02 07:38:05;;;;;;;;;;;9.30;99.90;;;9.51;60.34;98999.59;4962894;29;20388;-83
2024/03/02 07:40:32;;;;;;;;;;;9.40;99.90;;;9.53;59.85;98997.53;4943256;29;19926;-81
2024/03/02 07:43:01;;;;;;;;;;;9.40;99.90;;;9.57;60.08;99004.00;4926932;29;19927;-82
2024/03/02 07:45:29;;;;;;;;;;;9.50;99.90;;;9.63;59.94;99015.53;4945534;29;19951;-82
2024/03/02 07:47:58;;;;;;;;;;;9.50;99.90;;;9.63;60.02;99005.69;4926083;29;19950;-82
2024/03/02 07:50:25;;;;;;;;;;;9.50;99.90;;;9.52;59.81;99010.03;4930226;29;19950;-82
2024/03/02 07:52:52;;;;;;;;;;;9.60;99.90;;;9.56;60.09;98994.38;4944853;29;19978;-83
2024/03/02 07:55:20;;;;;;;;;;;9.60;99.90;;;9.64;60.03;99017.94;4942813;29;20017;-83
2024/03/02 07:57:47;;;;;;;;;;;9.60;99.90;;;9.63;59.82;99013.66;4926807;29;19930;-83
2024/03/02 08:00:15;;;;;;;;;;;9.60;99.90;;;9.61;59.95;98999.78;4944001;29;20419;-83
2024/03/02 08:02:43;;;;;;;;;;;9.70;99.90;;;9.60;60.04;99002.69;4926517;29;19965;-83
2024/03/02 08:05:13;;;;;;;;;;;9.70;99.90;;;9.63;60.04;99004.88;4926981;29;19933;-83
2024/03/02 08:07:41;;;;;;;;;;;9.70;99.90;;;9.71;60.22;98999.13;4927110;29;20352;-82
2024/03/02 08:10:12;;;;;;;;;;;9.80;99.90;;;9.76;59.62;99021.34;4927258;29;19926;-82
2024/03/02 08:12:39;;;;;;;;;;;9.80;99.90;;;9.82;60.03;99019.56;4941911;29;19927;-83
2024/03/02 08:15:07;;;;;;;;;;;9.90;99.90;;;9.84;59.55;99030.78;4926101;29;19951;-82
2024/03/02 08:17:35;;;;;;;;;;;9.90;99.90;;;9.88;59.32;99028.44;4940809;29;19927;-82
2024/03/02 08:20:02;;;;;;;;;;;9.90;99.90;;;9.82;59.25;99030.22;4925827;29;19927;-82
2024/03/02 08:22:31;;;;;;;;;;;9.90;99.90;;;9.77;59.47;99046.91;4942411;29;19927;-83
2024/03/02 08:24:58;;;;;;;;;;;9.90;99.90;;;9.75;59.86;99033.03;4943389;29;20430;-83
2024/03/02 08:27:26;;;;;;;;;;;9.90;99.90;;;9.81;60.11;99039.25;4942261;29;19974;-83
2024/03/02 08:29:53;;;;;;;;;;;9.90;99.90;;;9.79;59.20;99036.81;4925432;29;19927;-82
2024/03/02 08:32:22;;;;;;;;;;;9.90;99.90;;;9.87;60.09;99024.16;4925251;29;20312;-81
2024/03/02 08:34:49;;;;;;;;;;;10.00;99.90;;;9.87;59.30;99037.50;4942920;29;20375;-81
2024/03/02 08:37:17;;;;;;;;;;;10.00;99.90;;;9.91;59.39;99027.97;4942549;29;19942;-82
2024/03/02 08:39:46;;;;;;;;;;;10.10;99.90;;;9.94;59.53;99033.59;4944087;29;19931;-83
2024/03/02 08:42:13;;;;;;;;;;;10.10;99.90;;;10.00;59.32;99039.81;4925539;29;19927;-83
2024/03/02 08:44:41;;;;;;;;;;;10.20;99.90;;;10.05;59.69;99034.56;4943498;29;19998;-82
2024/03/02 08:47:08;;;;;;;;;;;10.20;99.90;;;10.07;59.00;99032.47;4936984;29;19931;-82
2024/03/02 08:49:36;;;;;;;;;;;10.30;99.90;;;10.14;59.18;99027.78;4952980;29;19941;-82
2024/03/02 08:52:05;;;;;;;;;;;10.40;99.90;;;10.20;59.11;99026.81;4944411;29;19927;-82
2024/03/02 08:54:49;;;;;;;;;;;10.40;99.90;;;10.24;58.76;99032.47;4940583;29;19933;-82
2024/03/02 08:57:19;;;;;;;;;;;10.50;99.90;;;10.23;58.25;99026.31;4943855;29;19938;-82
2024/03/02 08:59:46;;;;;;;;;;;10.50;99.90;;;10.27;58.90;99037.31;4932701;29;20013;-82
2024/03/02 09:02:15;;;;;;;;;;;10.50;99.90;;;10.30;58.98;99037.66;4939985;29;19927;-82
2024/03/02 09:04:43;;;;;;;;;;;10.50;99.90;;;10.37;58.75;99039.34;4940448;29;19926;-82
2024/03/02 09:07:10;;;;;;;;;;;10.60;99.90;;;10.42;58.79;99020.75;4940817;29;19926;-82
2024/03/02 09:09:42;;;;;;;;;;;10.60;99.90;;;10.43;58.57;99028.50;4945928;29;20106;-82
2024/03/02 09:12:12;;;;;;;;;;;10.70;99.90;;;10.46;58.15;99028.00;4961320;29;20419;-82
2024/03/02 09:14:41;;;;;;;;;;;10.70;99.90;;;10.48;58.41;99035.75;4960681;28;19969;-82
2024/03/02 09:17:10;;;;;;;;;;;10.70;99.90;;;10.51;58.39;99049.41;4933190;29;20013;-81
2024/03/02 09:19:41;;;;;;;;;;;10.70;99.90;;;10.50;58.10;99045.13;4953338;29;19930;-82
2024/03/02 09:22:10;;;;;;;;;;;10.70;99.90;;;10.56;58.04;99059.31;4943870;29;19938;-82
2024/03/02 09:24:41;;;;;;;;;;;10.80;99.90;;;10.58;57.74;99051.88;4926620;29;19950;-82
2024/03/02 09:27:08;;;;;;;;;;;10.80;99.90;;;10.63;57.70;99059.13;4910600;29;20047;-82
2024/03/02 09:29:36;;;;;;;;;;;10.90;99.90;;;10.62;57.41;99055.66;4943800;29;19927;-82
2024/03/02 09:32:06;;;;;;;;;;;10.90;99.90;;;10.69;58.18;99056.31;4959617;29;19927;-82
2024/03/02 09:34:36;;;;;;;;;;;10.90;99.90;;;10.76;57.85;99040.94;4961753;29;20005;-83
2024/03/02 09:37:04;;;;;;;;;;;11.00;99.90;;;10.72;57.15;99049.66;4961973;28;19965;-81
2024/03/02 09:39:32;;;;;;;;;;;11.00;99.90;;;10.75;57.05;99042.00;4961213;28;19934;-82
2024/03/02 09:41:59;;;;;;;;;;;11.00;99.90;;;10.84;57.76;99050.38;4942982;29;19926;-81
2024/03/02 09:44:27;;;;;;;;;;;11.10;99.90;;;10.90;57.75;99051.25;4960543;29;19950;-81
2024/03/02 09:46:57;;;;;;;;;;;11.10;99.90;;;10.85;57.04;99043.97;4943887;29;19926;-82
2024/03/02 09:49:26;;;;;;;;;;;11.10;99.90;;;10.88;56.89;99048.00;4961071;29;19934;-81
2024/03/02 09:51:54;;;;;;;;;;;11.10;99.90;;;10.83;56.27;99038.91;4960781;28;19926;-82
2024/03/02 09:54:22;;;;;;;;;;;11.10;99.90;;;10.88;56.67;99042.66;4961444;29;19926;-82
2024/03/02 09:56:49;;;;;;;;;;;11.10;99.90;;;10.91;56.96;99042.19;4959385;28;19926;-82
2024/03/02 09:59:20;;;;;;;;;;;11.10;99.90;;;10.95;57.07;99041.44;4960465;28;19926;-82
2024/03/02 10:01:58;;;;;;;;;;;11.20;99.90;;;11.03;56.91;99038.34;4960284;29;19961;-82
2024/03/02 10:04:30;;;;;;;;;;;11.20;99.90;;;11.07;56.04;99046.63;4961274;29;19932;-81
2024/03/02 10:07:14;;;;;;;;;;;11.30;99.90;;;11.11;56.56;99042.41;4960704;29;19933;-81
2024/03/02 10:09:42;;;;;;;;;;;11.30;99.90;;;11.16;56.49;99039.00;4961801;29;19926;-82
2024/03/02 10:12:11;;;;;;;;;;;11.30;99.90;;;11.18;56.20;99037.69;4943837;29;19935;-81
2024/03/02 10:14:39;;;;;;;;;;;11.40;99.90;;;11.18;56.88;99040.38;4959911;28;20284;-81
2024/03/02 10:17:08;;;;;;;;;;;11.40;99.90;;;11.21;55.89;99036.38;4961077;29;19986;-81
2024/03/02 10:19:38;;;;;;;;;;;11.40;99.90;;;11.18;55.25;99048.38;4961803;29;19977;-81
2024/03/02 10:22:07;;;;;;;;;;;11.40;99.90;;;11.23;55.54;99039.63;4959512;29;19950;-81
2024/03/02 10:24:39;;;;;;;;;;;11.40;99.90;;;11.28;55.13;99032.47;4959413;28;19926;-82
2024/03/02 10:27:10;;;;;;;;;;;11.50;99.90;;;11.25;55.76;99032.16;4960563;29;19953;-81
2024/03/02 10:29:41;;;;;;;;;;;11.50;99.90;;;11.20;55.53;99030.25;4959722;29;20410;-81
2024/03/02 10:32:12;;;;;;;;;;;11.40;99.90;;;11.17;55.31;99025.38;4958999;29;19926;-81
2024/03/02 10:34:44;;;;;;;;;;;11.40;99.90;;;11.15;55.55;99032.84;4958025;29;19982;-81
2024/03/02 10:37:12;;;;;;;;;;;11.40;99.90;;;11.21;56.11;99033.72;4942498;29;20295;-81
2024/03/02 10:39:40;;;;;;;;;;;11.40;99.90;;;11.20;55.67;99022.22;4959656;29;20024;-81
2024/03/02 10:42:08;;;;;;;;;;;11.40;99.90;;;11.29;55.96;99026.06;4960195;29;19973;-81
2024/03/02 10:44:36;;;;;;;;;;;11.40;99.90;;;11.30;55.48;99033.00;4959589;28;19928;-81
2024/03/02 10:47:04;;;;;;;;;;;11.50;99.90;;;11.22;55.25;99038.78;4942560;29;19985;-81
2024/03/02 10:49:32;;;;;;;;;;;11.40;99.90;;;11.22;56.16;99029.97;4942952;29;19930;-81
2024/03/02 10:52:05;;;;;;;;;;;11.50;99.90;;;11.21;55.37;99021.16;4943329;29;19930;-81
2024/03/02 10:54:35;;;;;;;;;;;11.40;99.90;;;11.17;55.12;99016.59;4960556;29;19977;-81
2024/03/02 10:57:06;;;;;;;;;;;11.40;99.90;;;11.14;55.80;99004.56;4960656;29;20384;-81
2024/03/02 10:59:34;;;;;;;;;;;11.40;99.90;;;11.16;55.95;99009.63;4961072;29;19962;-81
2024/03/02 11:02:03;;;;;;;;;;;11.40;99.90;;;11.15;55.53;99003.50;4962997;29;19927;-81
2024/03/02 11:04:32;;;;;;;;;;;11.40;99.90;;;11.21;55.37;99015.84;4946965;29;19930;-81
2024/03/02 11:07:05;;;;;;;;;;;11.40;99.90;;;11.28;55.28;99011.13;4962471;29;20026;-81
2024/03/02 11:09:35;;;;;;;;;;;11.50;99.90;;;11.34;55.96;99002.09;4963366;29;19933;-81
2024/03/02 11:12:11;;;;;;;;;;;11.50;99.90;;;11.32;55.60;99009.56;4963033;28;19927;-81
2024/03/02 11:14:43;;;;;;;;;;;11.50;99.90;;;11.33;55.48;99008.50;4963712;29;20019;-81
2024/03/02 11:17:10;;;;;;;;;;;11.50;99.90;;;11.43;55.66;99004.31;4945760;29;19981;-81
2024/03/02 11:19:39;;;;;;;;;;;11.60;99.90;;;11.60;55.24;98999.66;4962432;28;19926;-81
2024/03/02 11:22:09;;;;;;;;;;;11.70;99.90;;;11.70;55.20;99002.41;4961117;29;19926;-81
2024/03/02 11:24:36;;;;;;;;;;;11.80;99.90;;;11.74;55.15;99000.84;4945601;29;19926;-81
2024/03/02 11:27:11;;;;;;;;;;;11.90;99.90;;;11.77;54.19;99004.88;4963577;29;19927;-81
2024/03/02 11:29:43;;;;;;;;;;;11.90;99.90;;;11.79;54.28;98998.22;4963164;29;19930;-81
2024/03/02 11:32:16;;;;;;;;;;;12.00;99.90;;;11.80;53.99;98997.16;4962245;28;20318;-81
2024/03/02 11:34:46;;;;;;;;;;;12.00;99.90;;;11.78;53.13;98993.13;4945438;29;19930;-81
2024/03/02 11:37:15;;;;;;;;;;;12.00;99.90;;;11.77;52.89;98997.69;4963181;29;19927;-81
2024/03/02 11:39:46;;;;;;;;;;;11.90;99.90;;;11.75;52.87;98990.97;4961804;28;19933;-81